Terminal Aerodrome Forecast
Issued by NWS

Home | Current Version | Previous Version | Text Only | Print | Product List | Glossary On
Versions: 1 2 3 4 5 6 7 8 9 10 11 12 13 14 15 16 17 18 19
000
FTUS43 KDLH 252300
TAFBRD
TAF
KBRD 252327Z 2600/2624 01005KT P6SM OVC016
     FM260400 36007KT P6SM -SN OVC014
     FM261300 34009KT P6SM OVC012
     FM262200 36005KT P6SM OVC022=

USA.gov is the U.S. government's official web portal to all federal, state and local government web resources and services.